Airport View

Enter AWOS ICAO identifier for current METAR.

ex. KFNL

KPHF 202354Z 05004KT 10SM CLR 18/13 A3026 RMK AO2 SLP247 T01780128 10244 20178 53006

21 Sep 2019 00:35

Phone: 757-874-3682

Other Area AWOS: KFAF - KLFI - KJGG - KNGU

TAF KPHF 202320Z 2100/2124 16005KT P6SM SKC FM210400 20005KT P6SM SKC FM211100 23004KT P6SM SKC FM211900 20005KT P6SM SKC